메인 페이지
METAR-TAF:

METAR-TAF

공항 :

히베이랑프레투, 상파울루, 브라질

위도: 21-08S, 경도: 047-47W, 고도: 549m

현재 날씨관측

예보는 1 시간 11분 전, 01:00시(UTC)에 발표되었습니다.
무풍
온도 22°C
습도 94%
기압 1014 hPa
시정 10km 이상
1500m 미만 상공 구름 및 적란운 없음

METAR: SBRP 030100Z 00000KT CAVOK 22/21 Q1014

시각: 23:11 (02:11 UTC)

예보

예보는 4 시간 11분 전, 22:00시(UTC)에 발표되었습니다.
예보 대상 시간: 03일 00시부터 03일 12시까지 (UTC)
여러 방향의 바람 2kt
시정 10km 이상
고도 4000ft 상공 구름 보통
전환 중
03일 00시부터 03일 02시까지 (UTC)
5kt
시정 10km 이상
1500m 미만 상공 구름 및 적란운 없음

TAF: SBRP 022200Z 0300/0312 VRB02KT 9999 SCT040 TN22/0305Z TX23/0311Z BECMG 0300/0302 35005KT CAVOK RMK PHH

4,000개 이상의 공항 관측 자료 및 예보 (METAR 및 TAF 보고).

지도상에서 검색 가능한 기상관측소가 노란 점과 빨간 점으로 표시되어 있습니다.

기상관측소 명을 보려면 표시 위로 마우스를 이동하세요.

날씨 관측과 예보를 보려면 클릭하세요.

지도 변경 : 확대하려면 엑스 표시가 있는 녹색 버튼, 축소하려면 빼기 표시가 있는 녹색 버튼, 다음 페이지의 지도를 보려면 녹색 화살표를 클릭하세요.


METAR-TAF: